createdAt,value
2017-09-19T00:00:11.714Z,1008.72
2017-09-19T00:00:37.875Z,1008.72
2017-09-19T00:01:03.984Z,1008.7
2017-09-19T00:01:30.096Z,1008.73
2017-09-19T00:01:56.216Z,1008.71
2017-09-19T00:02:22.329Z,1008.73
2017-09-19T00:02:48.440Z,1008.72
2017-09-19T00:03:14.551Z,1008.71
2017-09-19T00:03:40.669Z,1008.7
2017-09-19T00:04:06.788Z,1008.75
2017-09-19T00:04:32.898Z,1008.8
2017-09-19T00:04:59.031Z,1008.78
2017-09-19T00:05:25.137Z,1008.74
2017-09-19T00:05:51.250Z,1008.78
2017-09-19T00:06:17.371Z,1008.76
2017-09-19T00:06:43.474Z,1008.76
2017-09-19T00:07:09.606Z,1008.77
2017-09-19T00:07:35.719Z,1008.8
2017-09-19T00:08:01.827Z,1008.81
2017-09-19T00:08:27.950Z,1008.77
2017-09-19T00:08:54.057Z,1008.76
2017-09-19T00:09:20.177Z,1008.8
2017-09-19T00:09:46.292Z,1008.78
2017-09-19T00:10:12.399Z,1008.77
2017-09-19T00:10:38.523Z,1008.8
2017-09-19T00:11:04.629Z,1008.77
2017-09-19T00:11:30.748Z,1008.79
2017-09-19T00:11:56.858Z,1008.77
2017-09-19T00:12:22.981Z,1008.78
2017-09-19T00:12:49.088Z,1008.78
2017-09-19T00:13:15.213Z,1008.79
2017-09-19T00:13:41.332Z,1008.78
2017-09-19T00:14:07.443Z,1008.78
2017-09-19T00:14:33.561Z,1008.79
2017-09-19T00:14:59.668Z,1008.79
2017-09-19T00:15:25.809Z,1008.76
2017-09-19T00:15:51.939Z,1008.78
2017-09-19T00:16:18.051Z,1008.79
2017-09-19T00:16:44.176Z,1008.82
2017-09-19T00:17:10.294Z,1008.82
2017-09-19T00:17:36.405Z,1008.8
2017-09-19T00:18:02.523Z,1008.8
2017-09-19T00:18:28.630Z,1008.81
2017-09-19T00:18:54.755Z,1008.78
2017-09-19T00:19:20.859Z,1008.83
2017-09-19T00:19:47.019Z,1008.8
2017-09-19T00:20:13.118Z,1008.85
2017-09-19T00:20:39.235Z,1008.8
2017-09-19T00:21:05.340Z,1008.77
2017-09-19T00:21:31.462Z,1008.78
2017-09-19T00:21:57.570Z,1008.79
2017-09-19T00:22:23.684Z,1008.8
2017-09-19T00:22:49.822Z,1008.81
2017-09-19T00:23:15.929Z,1008.79
2017-09-19T00:23:42.054Z,1008.82
2017-09-19T00:24:08.167Z,1008.77
2017-09-19T00:24:34.284Z,1008.8
2017-09-19T00:25:00.407Z,1008.8
2017-09-19T00:25:26.533Z,1008.78
2017-09-19T00:25:52.638Z,1008.76
2017-09-19T00:26:18.755Z,1008.81
2017-09-19T00:26:44.894Z,1008.8
2017-09-19T00:27:11.001Z,1008.79
2017-09-19T00:27:37.113Z,1008.77
2017-09-19T00:28:03.231Z,1008.76
2017-09-19T00:28:29.358Z,1008.77
2017-09-19T00:28:55.457Z,1008.81
2017-09-19T00:29:21.565Z,1008.8
2017-09-19T00:29:47.686Z,1008.77
2017-09-19T00:30:13.803Z,1008.76
2017-09-19T00:30:39.925Z,1008.79
2017-09-19T00:31:06.044Z,1008.77
2017-09-19T00:31:32.154Z,1008.77
2017-09-19T00:31:58.273Z,1008.79
2017-09-19T00:32:24.378Z,1008.79
2017-09-19T00:32:50.501Z,1008.76
2017-09-19T00:33:16.611Z,1008.78
2017-09-19T00:33:42.722Z,1008.77
2017-09-19T00:34:08.839Z,1008.76
2017-09-19T00:34:34.963Z,1008.78
2017-09-19T00:35:01.070Z,1008.77
2017-09-19T00:35:27.181Z,1008.79
2017-09-19T00:35:53.306Z,1008.8
2017-09-19T00:36:19.411Z,1008.8
2017-09-19T00:36:45.536Z,1008.77
2017-09-19T00:37:11.656Z,1008.77
2017-09-19T00:37:37.767Z,1008.78
2017-09-19T00:38:03.884Z,1008.77
2017-09-19T00:38:29.991Z,1008.76
2017-09-19T00:38:56.114Z,1008.76
2017-09-19T00:39:22.219Z,1008.76
2017-09-19T00:39:48.345Z,1008.75
2017-09-19T00:40:14.450Z,1008.77
2017-09-19T00:40:40.564Z,1008.74
2017-09-19T00:41:06.685Z,1008.74
2017-09-19T00:41:32.790Z,1008.75
2017-09-19T00:41:58.898Z,1008.71
2017-09-19T00:42:25.020Z,1008.77
2017-09-19T00:42:51.129Z,1008.76
2017-09-19T00:43:17.255Z,1008.77
2017-09-19T00:43:43.380Z,1008.73
2017-09-19T00:44:09.505Z,1008.78
2017-09-19T00:44:35.633Z,1008.73
2017-09-19T00:45:01.740Z,1008.78
2017-09-19T00:45:27.852Z,1008.79
2017-09-19T00:45:53.961Z,1008.72
2017-09-19T00:46:20.077Z,1008.75
2017-09-19T00:46:46.190Z,1008.76
2017-09-19T00:47:12.314Z,1008.76
2017-09-19T00:47:38.416Z,1008.74
2017-09-19T00:48:04.548Z,1008.76
2017-09-19T00:48:30.655Z,1008.68
2017-09-19T00:48:56.778Z,1008.73
2017-09-19T00:49:22.910Z,1008.72
2017-09-19T00:49:49.014Z,1008.72
2017-09-19T00:50:15.155Z,1008.7
2017-09-19T00:50:41.265Z,1008.73
2017-09-19T00:51:07.389Z,1008.74
2017-09-19T00:51:33.489Z,1008.69
2017-09-19T00:51:59.612Z,1008.71
2017-09-19T00:52:25.725Z,1008.71
2017-09-19T00:52:51.845Z,1008.71
2017-09-19T00:53:17.952Z,1008.7
2017-09-19T00:53:44.074Z,1008.7
2017-09-19T00:54:10.180Z,1008.71
2017-09-19T00:54:36.309Z,1008.71
2017-09-19T00:55:02.433Z,1008.7
2017-09-19T00:55:28.539Z,1008.7
2017-09-19T00:55:54.664Z,1008.72
2017-09-19T00:56:20.802Z,1008.71
2017-09-19T00:56:46.907Z,1008.68
2017-09-19T00:57:13.030Z,1008.71
2017-09-19T00:57:39.135Z,1008.73
2017-09-19T00:58:05.249Z,1008.75
2017-09-19T00:58:31.368Z,1008.71
2017-09-19T00:58:57.492Z,1008.75
2017-09-19T00:59:23.605Z,1008.72
2017-09-19T00:59:49.710Z,1008.71
2017-09-19T01:00:15.858Z,1008.74
2017-09-19T01:00:41.976Z,1008.73
2017-09-19T01:01:08.081Z,1008.72
2017-09-19T01:01:34.224Z,1008.73
2017-09-19T01:02:00.336Z,1008.74
2017-09-19T01:02:26.474Z,1008.72
2017-09-19T01:02:52.597Z,1008.75
2017-09-19T01:03:18.722Z,1008.75
2017-09-19T01:03:44.824Z,1008.74
2017-09-19T01:04:10.945Z,1008.73
2017-09-19T01:04:37.075Z,1008.71
2017-09-19T01:05:03.197Z,1008.72
2017-09-19T01:05:29.297Z,1008.72
2017-09-19T01:05:55.415Z,1008.73
2017-09-19T01:06:21.534Z,1008.73
2017-09-19T01:06:47.643Z,1008.73
2017-09-19T01:07:13.761Z,1008.71
2017-09-19T01:07:39.861Z,1008.71
2017-09-19T01:08:05.986Z,1008.73
2017-09-19T01:08:32.112Z,1008.72
2017-09-19T01:08:58.225Z,1008.72
2017-09-19T01:09:24.336Z,1008.71
2017-09-19T01:09:50.455Z,1008.69
2017-09-19T01:10:16.567Z,1008.73
2017-09-19T01:10:42.691Z,1008.7
2017-09-19T01:11:08.809Z,1008.74
2017-09-19T01:11:34.921Z,1008.75
2017-09-19T01:12:01.042Z,1008.7
2017-09-19T01:12:27.138Z,1008.71
2017-09-19T01:12:53.249Z,1008.75
2017-09-19T01:13:19.362Z,1008.72
2017-09-19T01:13:45.485Z,1008.72
2017-09-19T01:14:11.597Z,1008.73
2017-09-19T01:14:37.713Z,1008.71
2017-09-19T01:15:03.836Z,1008.7
2017-09-19T01:15:29.953Z,1008.73
2017-09-19T01:15:56.067Z,1008.71
2017-09-19T01:16:22.185Z,1008.74
2017-09-19T01:16:48.289Z,1008.73
2017-09-19T01:17:14.415Z,1008.72
2017-09-19T01:17:40.521Z,1008.7
2017-09-19T01:18:06.645Z,1008.73
2017-09-19T01:18:32.750Z,1008.71
2017-09-19T01:18:58.863Z,1008.77
2017-09-19T01:19:24.984Z,1008.7
2017-09-19T01:19:51.091Z,1008.7
2017-09-19T01:20:17.225Z,1008.7
2017-09-19T01:20:43.345Z,1008.72
2017-09-19T01:21:09.452Z,1008.72
2017-09-19T01:21:35.564Z,1008.74
2017-09-19T01:22:01.686Z,1008.76
2017-09-19T01:22:27.794Z,1008.75
2017-09-19T01:22:53.913Z,1008.72
2017-09-19T01:23:20.029Z,1008.77
2017-09-19T01:23:46.139Z,1008.76
2017-09-19T01:24:12.260Z,1008.76
2017-09-19T01:24:38.369Z,1008.8
2017-09-19T01:25:04.482Z,1008.81
2017-09-19T01:25:30.603Z,1008.74
2017-09-19T01:25:56.710Z,1008.78
2017-09-19T01:26:22.833Z,1008.77
2017-09-19T01:26:48.949Z,1008.8
2017-09-19T01:27:15.056Z,1008.76
2017-09-19T01:27:41.179Z,1008.82
2017-09-19T01:28:07.285Z,1008.8
2017-09-19T01:28:33.432Z,1008.8
2017-09-19T01:28:59.536Z,1008.83
2017-09-19T01:29:25.647Z,1008.75
2017-09-19T01:29:51.770Z,1008.81
2017-09-19T01:30:17.880Z,1008.8
2017-09-19T01:30:43.996Z,1008.8
2017-09-19T01:31:10.108Z,1008.81
2017-09-19T01:31:36.232Z,1008.8
2017-09-19T01:32:02.336Z,1008.8
2017-09-19T01:32:28.460Z,1008.84
2017-09-19T01:32:54.569Z,1008.82
2017-09-19T01:33:20.691Z,1008.84
2017-09-19T01:33:46.807Z,1008.8
2017-09-19T01:34:12.917Z,1008.8
2017-09-19T01:34:39.034Z,1008.81
2017-09-19T01:35:05.141Z,1008.79
2017-09-19T01:35:31.253Z,1008.79
2017-09-19T01:35:57.376Z,1008.83
2017-09-19T01:36:23.484Z,1008.83
2017-09-19T01:36:49.608Z,1008.83
2017-09-19T01:37:15.725Z,1008.81
2017-09-19T01:37:41.835Z,1008.79
2017-09-19T01:38:07.948Z,1008.82
2017-09-19T01:38:34.072Z,1008.8
2017-09-19T01:39:00.180Z,1008.8
2017-09-19T01:39:26.302Z,1008.81
2017-09-19T01:39:52.427Z,1008.8
2017-09-19T01:40:18.540Z,1008.8
2017-09-19T01:40:44.676Z,1008.8
2017-09-19T01:41:10.788Z,1008.79
2017-09-19T01:41:36.882Z,1008.81
2017-09-19T01:42:03.006Z,1008.8
2017-09-19T01:42:29.113Z,1008.82
2017-09-19T01:42:55.231Z,1008.81
2017-09-19T01:43:21.377Z,1008.81
2017-09-19T01:43:47.494Z,1008.8
2017-09-19T01:44:13.610Z,1008.8
2017-09-19T01:44:39.716Z,1008.81
2017-09-19T01:45:05.827Z,1008.8
2017-09-19T01:45:31.963Z,1008.79
2017-09-19T01:45:58.064Z,1008.82
2017-09-19T01:46:24.189Z,1008.81
2017-09-19T01:46:50.289Z,1008.8
2017-09-19T01:47:16.399Z,1008.8
2017-09-19T01:47:42.522Z,1008.81
2017-09-19T01:48:08.635Z,1008.8
2017-09-19T01:48:34.752Z,1008.81
2017-09-19T01:49:00.860Z,1008.83
2017-09-19T01:49:26.970Z,1008.81
2017-09-19T01:49:53.095Z,1008.8
2017-09-19T01:50:19.200Z,1008.8
2017-09-19T01:50:45.326Z,1008.78
2017-09-19T01:51:11.443Z,1008.84
2017-09-19T01:51:37.579Z,1008.8
2017-09-19T01:52:03.686Z,1008.8
2017-09-19T01:52:29.807Z,1008.79
2017-09-19T01:52:55.924Z,1008.78
2017-09-19T01:53:22.030Z,1008.8
2017-09-19T01:53:48.170Z,1008.79
2017-09-19T01:54:14.281Z,1008.77
2017-09-19T01:54:40.389Z,1008.77
2017-09-19T01:55:06.535Z,1008.78
2017-09-19T01:55:32.641Z,1008.74
2017-09-19T01:55:58.782Z,1008.73
2017-09-19T01:56:24.898Z,1008.75
2017-09-19T01:56:51.004Z,1008.78
2017-09-19T01:57:17.115Z,1008.74
2017-09-19T01:57:43.237Z,1008.75
2017-09-19T01:58:09.356Z,1008.75
2017-09-19T01:58:35.462Z,1008.78
2017-09-19T01:59:01.583Z,1008.74
2017-09-19T01:59:27.690Z,1008.73
2017-09-19T01:59:53.801Z,1008.77
2017-09-19T02:00:19.929Z,1008.77
2017-09-19T02:00:46.039Z,1008.73
2017-09-19T02:01:12.159Z,1008.74
2017-09-19T02:01:38.283Z,1008.73
2017-09-19T02:02:04.395Z,1008.76
2017-09-19T02:02:30.546Z,1008.79
2017-09-19T02:02:56.661Z,1008.75
2017-09-19T02:03:22.784Z,1008.75
2017-09-19T02:03:48.901Z,1008.76
2017-09-19T02:04:15.021Z,1008.79
2017-09-19T02:04:41.150Z,1008.76
2017-09-19T02:05:07.272Z,1008.76
2017-09-19T02:05:33.389Z,1008.76
2017-09-19T02:05:59.513Z,1008.72
2017-09-19T02:06:25.621Z,1008.74
2017-09-19T02:06:51.747Z,1008.73
2017-09-19T02:07:17.865Z,1008.75
2017-09-19T02:07:43.989Z,1008.75
2017-09-19T02:08:10.109Z,1008.74
2017-09-19T02:08:36.229Z,1008.74
2017-09-19T02:09:02.348Z,1008.75
2017-09-19T02:09:28.471Z,1008.77
2017-09-19T02:09:54.597Z,1008.73
2017-09-19T02:10:20.720Z,1008.71
2017-09-19T02:10:46.845Z,1008.73
2017-09-19T02:11:12.962Z,1008.75
2017-09-19T02:11:39.086Z,1008.75
2017-09-19T02:12:05.209Z,1008.75
2017-09-19T02:12:31.327Z,1008.74
2017-09-19T02:12:57.452Z,1008.74
2017-09-19T02:13:23.570Z,1008.73
2017-09-19T02:13:49.689Z,1008.73
2017-09-19T02:14:15.819Z,1008.72
2017-09-19T02:14:41.934Z,1008.71
2017-09-19T02:15:08.058Z,1008.74
2017-09-19T02:15:34.181Z,1008.73
2017-09-19T02:16:00.299Z,1008.75
2017-09-19T02:16:26.419Z,1008.74
2017-09-19T02:16:52.544Z,1008.74
2017-09-19T02:17:18.660Z,1008.74
2017-09-19T02:17:44.786Z,1008.74
2017-09-19T02:18:10.909Z,1008.73
2017-09-19T02:18:37.029Z,1008.74
2017-09-19T02:19:03.152Z,1008.78
2017-09-19T02:19:29.270Z,1008.75
2017-09-19T02:19:55.393Z,1008.75
2017-09-19T02:20:21.507Z,1008.74
2017-09-19T02:20:47.630Z,1008.73
2017-09-19T02:21:13.746Z,1008.74
2017-09-19T02:21:39.864Z,1008.71
2017-09-19T02:22:05.996Z,1008.74
2017-09-19T02:22:32.133Z,1008.76
2017-09-19T02:22:58.250Z,1008.76
2017-09-19T02:23:24.375Z,1008.75
2017-09-19T02:23:50.499Z,1008.76
2017-09-19T02:24:16.620Z,1008.74
2017-09-19T02:24:42.745Z,1008.76
2017-09-19T02:25:08.858Z,1008.75
2017-09-19T02:25:34.978Z,1008.74
2017-09-19T02:26:01.103Z,1008.74
2017-09-19T02:26:27.226Z,1008.74
2017-09-19T02:26:53.341Z,1008.73
2017-09-19T02:27:19.468Z,1008.72
2017-09-19T02:27:45.588Z,1008.73
2017-09-19T02:28:11.707Z,1008.75
2017-09-19T02:28:37.833Z,1008.66
2017-09-19T02:29:03.956Z,1008.72
2017-09-19T02:29:30.075Z,1008.67
2017-09-19T02:29:56.201Z,1008.71
2017-09-19T02:30:22.318Z,1008.68
2017-09-19T02:30:48.461Z,1008.71
2017-09-19T02:31:14.575Z,1008.73
2017-09-19T02:31:40.723Z,1008.7
2017-09-19T02:32:06.848Z,1008.69
2017-09-19T02:32:32.957Z,1008.68
2017-09-19T02:32:59.083Z,1008.7
2017-09-19T02:33:25.203Z,1008.71
2017-09-19T02:33:51.322Z,1008.7
2017-09-19T02:34:17.435Z,1008.7
2017-09-19T02:34:43.560Z,1008.7
2017-09-19T02:35:09.676Z,1008.72
2017-09-19T02:35:35.795Z,1008.71
2017-09-19T02:36:01.918Z,1008.72
2017-09-19T02:36:28.041Z,1008.67
2017-09-19T02:36:54.179Z,1008.71
2017-09-19T02:37:20.303Z,1008.69
2017-09-19T02:37:46.419Z,1008.72
2017-09-19T02:38:12.544Z,1008.73
2017-09-19T02:38:38.656Z,1008.74
2017-09-19T02:39:04.775Z,1008.71
2017-09-19T02:39:30.900Z,1008.72
2017-09-19T02:39:57.016Z,1008.72
2017-09-19T02:40:23.138Z,1008.73
2017-09-19T02:40:49.257Z,1008.75
2017-09-19T02:41:15.384Z,1008.78
2017-09-19T02:41:41.509Z,1008.73
2017-09-19T02:42:07.627Z,1008.77
2017-09-19T02:42:33.744Z,1008.76
2017-09-19T02:42:59.865Z,1008.75
2017-09-19T02:43:25.991Z,1008.79
2017-09-19T02:43:52.112Z,1008.77
2017-09-19T02:44:18.230Z,1008.81
2017-09-19T02:44:44.376Z,1008.78
2017-09-19T02:45:10.512Z,1008.79
2017-09-19T02:45:36.653Z,1008.78
2017-09-19T02:46:02.775Z,1008.79
2017-09-19T02:46:28.891Z,1008.78
2017-09-19T02:46:55.025Z,1008.79
2017-09-19T02:47:21.144Z,1008.79
2017-09-19T02:47:47.284Z,1008.8
2017-09-19T02:48:13.400Z,1008.78
2017-09-19T02:48:39.534Z,1008.78
2017-09-19T02:49:05.651Z,1008.82
2017-09-19T02:49:31.787Z,1008.81
2017-09-19T02:49:57.906Z,1008.79
2017-09-19T02:50:24.075Z,1008.78
2017-09-19T02:50:50.192Z,1008.77
2017-09-19T02:51:16.311Z,1008.8
2017-09-19T02:51:42.437Z,1008.81
2017-09-19T02:52:08.579Z,1008.83
2017-09-19T02:52:34.698Z,1008.82
2017-09-19T02:53:00.824Z,1008.8
2017-09-19T02:53:26.943Z,1008.8
2017-09-19T02:53:53.066Z,1008.85
2017-09-19T02:54:19.212Z,1008.87
2017-09-19T02:54:45.330Z,1008.84
2017-09-19T02:55:11.458Z,1008.85
2017-09-19T02:55:37.580Z,1008.86
2017-09-19T02:56:03.693Z,1008.8
2017-09-19T02:56:29.816Z,1008.84
2017-09-19T02:56:55.959Z,1008.82
2017-09-19T02:57:22.082Z,1008.85
2017-09-19T02:57:48.198Z,1008.84
2017-09-19T02:58:14.316Z,1008.82
2017-09-19T02:58:40.444Z,1008.86
2017-09-19T02:59:06.565Z,1008.84
2017-09-19T02:59:32.682Z,1008.82
2017-09-19T02:59:58.843Z,1008.85
2017-09-19T03:00:24.969Z,1008.87
2017-09-19T03:00:51.089Z,1008.84
2017-09-19T03:01:17.227Z,1008.82
2017-09-19T03:01:43.376Z,1008.83
2017-09-19T03:02:09.490Z,1008.82
2017-09-19T03:02:35.611Z,1008.83
2017-09-19T03:03:01.736Z,1008.85
2017-09-19T03:03:27.851Z,1008.82
2017-09-19T03:03:53.976Z,1008.81
2017-09-19T03:04:20.093Z,1008.84
2017-09-19T03:04:46.217Z,1008.85
2017-09-19T03:05:12.364Z,1008.85
2017-09-19T03:05:38.505Z,1008.83
2017-09-19T03:06:04.624Z,1008.83
2017-09-19T03:06:30.751Z,1008.86
2017-09-19T03:06:56.881Z,1008.81
2017-09-19T03:07:22.998Z,1008.82
2017-09-19T03:07:49.174Z,1008.84
2017-09-19T03:08:15.288Z,1008.84
2017-09-19T03:08:41.418Z,1008.84
2017-09-19T03:09:07.532Z,1008.82
2017-09-19T03:09:33.655Z,1008.84
2017-09-19T03:09:59.776Z,1008.84
2017-09-19T03:10:25.901Z,1008.81
2017-09-19T03:10:52.013Z,1008.83
2017-09-19T03:11:18.133Z,1008.82
2017-09-19T03:11:44.256Z,1008.85
2017-09-19T03:12:10.376Z,1008.85
2017-09-19T03:12:36.498Z,1008.84
2017-09-19T03:13:02.616Z,1008.86
2017-09-19T03:13:28.732Z,1008.86
2017-09-19T03:13:54.845Z,1008.87
2017-09-19T03:14:20.969Z,1008.86
2017-09-19T03:14:47.107Z,1008.84
2017-09-19T03:15:13.229Z,1008.91
2017-09-19T03:15:39.368Z,1008.86
2017-09-19T03:16:05.487Z,1008.86
2017-09-19T03:16:31.615Z,1008.87
2017-09-19T03:16:57.736Z,1008.85
2017-09-19T03:17:23.873Z,1008.86
2017-09-19T03:17:50.002Z,1008.9
2017-09-19T03:18:16.119Z,1008.86
2017-09-19T03:18:42.240Z,1008.86
2017-09-19T03:19:08.365Z,1008.84
2017-09-19T03:19:34.479Z,1008.85
2017-09-19T03:20:00.604Z,1008.86
2017-09-19T03:20:26.725Z,1008.84
2017-09-19T03:20:52.841Z,1008.85
2017-09-19T03:21:18.961Z,1008.84
2017-09-19T03:21:45.088Z,1008.86
2017-09-19T03:22:11.210Z,1008.79
2017-09-19T03:22:37.328Z,1008.85
2017-09-19T03:23:03.452Z,1008.83
2017-09-19T03:23:29.573Z,1008.81
2017-09-19T03:23:55.690Z,1008.82
2017-09-19T03:24:21.810Z,1008.8
2017-09-19T03:24:47.930Z,1008.77
2017-09-19T03:25:14.069Z,1008.79
2017-09-19T03:25:40.191Z,1008.79
2017-09-19T03:26:06.315Z,1008.79
2017-09-19T03:26:32.433Z,1008.73
2017-09-19T03:26:58.562Z,1008.74
2017-09-19T03:27:24.680Z,1008.78
2017-09-19T03:27:50.796Z,1008.71
2017-09-19T03:28:16.921Z,1008.75
2017-09-19T03:28:43.045Z,1008.74
2017-09-19T03:29:09.163Z,1008.73
2017-09-19T03:29:35.282Z,1008.7
2017-09-19T03:30:01.418Z,1008.7
2017-09-19T03:30:27.546Z,1008.72
2017-09-19T03:30:53.665Z,1008.7
2017-09-19T03:31:19.780Z,1008.72
2017-09-19T03:31:45.912Z,1008.73
2017-09-19T03:32:12.029Z,1008.75
2017-09-19T03:32:38.168Z,1008.73
2017-09-19T03:33:04.289Z,1008.75
2017-09-19T03:33:30.411Z,1008.77
2017-09-19T03:33:56.528Z,1008.75
2017-09-19T03:34:22.655Z,1008.77
2017-09-19T03:34:48.777Z,1008.75
2017-09-19T03:35:14.911Z,1008.77
2017-09-19T03:35:41.031Z,1008.78
2017-09-19T03:36:07.146Z,1008.76
2017-09-19T03:36:33.264Z,1008.76
2017-09-19T03:36:59.390Z,1008.8
2017-09-19T03:37:25.517Z,1008.79
2017-09-19T03:37:51.642Z,1008.75
2017-09-19T03:38:17.764Z,1008.8
2017-09-19T03:38:43.886Z,1008.8
2017-09-19T03:39:10.002Z,1008.8
2017-09-19T03:39:36.127Z,1008.79
2017-09-19T03:40:02.253Z,1008.78
2017-09-19T03:40:28.370Z,1008.82
2017-09-19T03:40:54.494Z,1008.82
2017-09-19T03:41:20.632Z,1008.8
2017-09-19T03:41:46.753Z,1008.8
2017-09-19T03:42:12.876Z,1008.82
2017-09-19T03:42:39.019Z,1008.82
2017-09-19T03:43:05.136Z,1008.81
2017-09-19T03:43:31.257Z,1008.8
2017-09-19T03:43:57.404Z,1008.82
2017-09-19T03:44:23.521Z,1008.83
2017-09-19T03:44:49.646Z,1008.84
2017-09-19T03:45:15.766Z,1008.8
2017-09-19T03:45:41.887Z,1008.82
2017-09-19T03:46:08.013Z,1008.86
2017-09-19T03:46:34.127Z,1008.87
2017-09-19T03:47:00.248Z,1008.82
2017-09-19T03:47:26.376Z,1008.81
2017-09-19T03:47:52.493Z,1008.83
2017-09-19T03:48:18.618Z,1008.81
2017-09-19T03:48:44.734Z,1008.82
2017-09-19T03:49:10.862Z,1008.81
2017-09-19T03:49:36.978Z,1008.87
2017-09-19T03:50:03.104Z,1008.83
2017-09-19T03:50:29.243Z,1008.84
2017-09-19T03:50:55.360Z,1008.85
2017-09-19T03:51:21.482Z,1008.85
2017-09-19T03:51:47.599Z,1008.84
2017-09-19T03:52:13.727Z,1008.88
2017-09-19T03:52:39.854Z,1008.87
2017-09-19T03:53:05.970Z,1008.83
2017-09-19T03:53:32.087Z,1008.88
2017-09-19T03:53:58.217Z,1008.86
2017-09-19T03:54:24.333Z,1008.87
2017-09-19T03:54:50.451Z,1008.86
2017-09-19T03:55:16.575Z,1008.88
2017-09-19T03:55:42.692Z,1008.89
2017-09-19T03:56:08.816Z,1008.92
2017-09-19T03:56:34.938Z,1008.91
2017-09-19T03:57:01.054Z,1008.91
2017-09-19T03:57:27.172Z,1008.91
2017-09-19T03:57:53.297Z,1008.87
2017-09-19T03:58:19.416Z,1008.89
2017-09-19T03:58:45.546Z,1008.87
2017-09-19T03:59:11.666Z,1008.85
2017-09-19T03:59:37.783Z,1008.87
2017-09-19T04:00:03.902Z,1008.88
2017-09-19T04:00:30.025Z,1008.88
2017-09-19T04:00:56.140Z,1008.86
2017-09-19T04:01:22.262Z,1008.87
2017-09-19T04:01:48.386Z,1008.84
2017-09-19T04:02:14.509Z,1008.85
2017-09-19T04:02:40.626Z,1008.82
2017-09-19T04:03:06.752Z,1008.86
2017-09-19T04:03:32.865Z,1008.84
2017-09-19T04:03:58.992Z,1008.85
2017-09-19T04:04:25.114Z,1008.87
2017-09-19T04:04:51.233Z,1008.84
2017-09-19T04:05:17.358Z,1008.88
2017-09-19T04:05:43.473Z,1008.9
2017-09-19T04:06:09.592Z,1008.83
2017-09-19T04:06:35.717Z,1008.84
2017-09-19T04:07:01.843Z,1008.85
2017-09-19T04:07:27.964Z,1008.86
2017-09-19T04:07:54.079Z,1008.87
2017-09-19T04:08:20.206Z,1008.85
2017-09-19T04:08:46.327Z,1008.87
2017-09-19T04:09:12.444Z,1008.84
2017-09-19T04:09:38.562Z,1008.85
2017-09-19T04:10:04.688Z,1008.81
2017-09-19T04:10:30.804Z,1008.82
2017-09-19T04:10:56.928Z,1008.85
2017-09-19T04:11:23.058Z,1008.85
2017-09-19T04:11:49.169Z,1008.91
2017-09-19T04:12:15.294Z,1008.85
2017-09-19T04:12:41.411Z,1008.85
2017-09-19T04:13:07.552Z,1008.84
2017-09-19T04:13:33.676Z,1008.86
2017-09-19T04:13:59.796Z,1008.85
2017-09-19T04:14:25.914Z,1008.86
2017-09-19T04:14:52.029Z,1008.85
2017-09-19T04:15:18.157Z,1008.83
2017-09-19T04:15:44.282Z,1008.82
2017-09-19T04:16:10.411Z,1008.83
2017-09-19T04:16:36.536Z,1008.91
2017-09-19T04:17:02.658Z,1008.88
2017-09-19T04:17:28.794Z,1008.84
2017-09-19T04:17:54.917Z,1008.85
2017-09-19T04:18:21.037Z,1008.85
2017-09-19T04:18:47.169Z,1008.84
2017-09-19T04:19:13.292Z,1008.88
2017-09-19T04:19:39.417Z,1008.87
2017-09-19T04:20:05.554Z,1008.91
2017-09-19T04:20:31.676Z,1008.91
2017-09-19T04:20:57.792Z,1008.9
2017-09-19T04:21:23.912Z,1008.89
2017-09-19T04:21:50.040Z,1008.85
2017-09-19T04:22:16.157Z,1008.87
2017-09-19T04:22:42.282Z,1008.85
2017-09-19T04:23:08.408Z,1008.87
2017-09-19T04:23:34.553Z,1008.89
2017-09-19T04:24:00.673Z,1008.86
2017-09-19T04:24:26.794Z,1008.89
2017-09-19T04:24:52.914Z,1008.87
2017-09-19T04:25:19.054Z,1008.86
2017-09-19T04:25:45.176Z,1008.84
2017-09-19T04:26:11.298Z,1008.86
2017-09-19T04:26:37.414Z,1008.84
2017-09-19T04:27:03.539Z,1008.86
2017-09-19T04:27:29.667Z,1008.86
2017-09-19T04:27:55.782Z,1008.86
2017-09-19T04:28:21.904Z,1008.84
2017-09-19T04:28:48.042Z,1008.81
2017-09-19T04:29:14.167Z,1008.88
2017-09-19T04:29:40.284Z,1008.88
2017-09-19T04:30:06.417Z,1008.89
2017-09-19T04:30:32.531Z,1008.85
2017-09-19T04:30:58.666Z,1008.87
2017-09-19T04:31:24.786Z,1008.87
2017-09-19T04:31:50.906Z,1008.88
2017-09-19T04:32:17.031Z,1008.88
2017-09-19T04:32:43.151Z,1008.87
2017-09-19T04:33:09.276Z,1008.9
2017-09-19T04:33:35.394Z,1008.88
2017-09-19T04:34:01.514Z,1008.9
2017-09-19T04:34:27.634Z,1008.92
2017-09-19T04:34:53.755Z,1008.92
2017-09-19T04:35:19.881Z,1008.91
2017-09-19T04:35:46.000Z,1008.92
2017-09-19T04:36:12.115Z,1008.93
2017-09-19T04:36:38.242Z,1008.94
2017-09-19T04:37:04.359Z,1008.91
2017-09-19T04:37:30.487Z,1008.94
2017-09-19T04:37:56.606Z,1008.91
2017-09-19T04:38:22.720Z,1008.94
2017-09-19T04:38:48.846Z,1008.95
2017-09-19T04:39:14.970Z,1008.98
2017-09-19T04:39:41.088Z,1008.91
2017-09-19T04:40:07.208Z,1008.93
2017-09-19T04:40:33.329Z,1008.93
2017-09-19T04:40:59.447Z,1008.97
2017-09-19T04:41:25.570Z,1008.95
2017-09-19T04:41:51.697Z,1008.96
2017-09-19T04:42:17.815Z,1008.96
2017-09-19T04:42:43.934Z,1008.98
2017-09-19T04:43:10.060Z,1008.97
2017-09-19T04:43:36.178Z,1008.98
2017-09-19T04:44:02.307Z,1008.97
2017-09-19T04:44:28.430Z,1008.95
2017-09-19T04:44:54.548Z,1008.96
2017-09-19T04:45:20.667Z,1009.01
2017-09-19T04:45:46.790Z,1008.99
2017-09-19T04:46:12.911Z,1009.02
2017-09-19T04:46:39.038Z,1009.02
2017-09-19T04:47:05.161Z,1009.02
2017-09-19T04:47:31.279Z,1009.02
2017-09-19T04:47:57.401Z,1009
2017-09-19T04:48:23.520Z,1009.03
2017-09-19T04:48:49.639Z,1009.04
2017-09-19T04:49:15.758Z,1009.02
2017-09-19T04:49:41.886Z,1009.06
2017-09-19T04:50:08.022Z,1009.06
2017-09-19T04:50:34.140Z,1009.11
2017-09-19T04:51:00.261Z,1009.1
2017-09-19T04:51:26.377Z,1009.15
2017-09-19T04:51:52.499Z,1009.1
2017-09-19T04:52:18.649Z,1009.13
2017-09-19T04:52:44.770Z,1009.14
2017-09-19T04:53:10.888Z,1009.17
2017-09-19T04:53:37.013Z,1009.14
2017-09-19T04:54:03.132Z,1009.15
2017-09-19T04:54:29.249Z,1009.14
2017-09-19T04:54:55.372Z,1009.14
2017-09-19T04:55:21.496Z,1009.15
2017-09-19T04:55:47.619Z,1009.18
2017-09-19T04:56:13.740Z,1009.18
2017-09-19T04:56:39.894Z,1009.17
2017-09-19T04:57:06.011Z,1009.17
2017-09-19T04:57:32.132Z,1009.2
2017-09-19T04:57:58.262Z,1009.14
2017-09-19T04:58:24.386Z,1009.18
2017-09-19T04:58:50.506Z,1009.19
2017-09-19T04:59:16.642Z,1009.19
2017-09-19T04:59:42.766Z,1009.17
2017-09-19T05:00:08.884Z,1009.16
2017-09-19T05:00:35.010Z,1009.18
2017-09-19T05:01:01.153Z,1009.17
2017-09-19T05:01:27.271Z,1009.14
2017-09-19T05:01:53.397Z,1009.17
2017-09-19T05:02:19.516Z,1009.19
2017-09-19T05:02:45.631Z,1009.19
2017-09-19T05:03:11.757Z,1009.21
2017-09-19T05:03:37.875Z,1009.18
2017-09-19T05:04:04.020Z,1009.23
2017-09-19T05:04:30.136Z,1009.23
2017-09-19T05:04:56.263Z,1009.21
2017-09-19T05:05:22.389Z,1009.26
2017-09-19T05:05:48.507Z,1009.18
2017-09-19T05:06:14.630Z,1009.22
2017-09-19T05:06:40.749Z,1009.24
2017-09-19T05:07:06.938Z,1009.26
2017-09-19T05:07:33.053Z,1009.23
2017-09-19T05:07:59.178Z,1009.24
2017-09-19T05:08:25.293Z,1009.22
2017-09-19T05:08:51.414Z,1009.26
2017-09-19T05:09:17.533Z,1009.27
2017-09-19T05:09:43.649Z,1009.3
2017-09-19T05:10:09.771Z,1009.25
2017-09-19T05:10:35.897Z,1009.22
2017-09-19T05:11:02.019Z,1009.26
2017-09-19T05:11:28.143Z,1009.26
2017-09-19T05:11:54.261Z,1009.29
2017-09-19T05:12:20.385Z,1009.26
2017-09-19T05:12:46.510Z,1009.26
2017-09-19T05:13:12.627Z,1009.31
2017-09-19T05:13:38.756Z,1009.27
2017-09-19T05:14:04.869Z,1009.3
2017-09-19T05:14:30.996Z,1009.33
2017-09-19T05:14:57.113Z,1009.29
2017-09-19T05:15:23.232Z,1009.3
2017-09-19T05:15:49.354Z,1009.32
2017-09-19T05:16:15.469Z,1009.29
2017-09-19T05:16:41.600Z,1009.31
2017-09-19T05:17:07.721Z,1009.31